Time;durP1;ratioP1;P1;durP2;ratioP2;P2;SDS_P1;SDS_P2;PMS_P1;PMS_P2;Temp;Humidity;BMP_temperature;BMP_pressure;BME280_temperature;BME280_humidity;BME280_pressure;Samples;Min_cycle;Max_cycle;Signal;HPM_P1;HPM_P2
2022/03/09 00:00:36;;;;;;;5.90;3.20;;;-0.30;62.20;;;;;;4078337;29;20023;-79
2022/03/09 00:02:37;;;;;;;8.98;4.00;;;-0.30;62.20;;;;;;4096215;28;20035;-80
2022/03/09 00:04:38;;;;;;;7.75;4.20;;;-0.30;62.30;;;;;;4094406;29;20195;-80
2022/03/09 00:06:38;;;;;;;8.65;4.05;;;-0.30;62.40;;;;;;4092494;29;20031;-79
2022/03/09 00:08:39;;;;;;;8.23;4.05;;;-0.40;62.50;;;;;;4126534;28;20100;-79
2022/03/09 00:10:39;;;;;;;7.72;3.58;;;-0.40;63.30;;;;;;4125002;28;20038;-80
2022/03/09 00:12:40;;;;;;;9.65;4.38;;;-0.40;62.80;;;;;;4095232;29;20507;-79
2022/03/09 00:14:41;;;;;;;10.13;4.40;;;-0.40;62.90;;;;;;4078881;29;20027;-79
2022/03/09 00:16:41;;;;;;;7.43;4.55;;;-0.50;63.00;;;;;;4075430;29;20028;-79
2022/03/09 00:18:42;;;;;;;8.70;4.78;;;-0.50;63.20;;;;;;4093086;29;20053;-79
2022/03/09 00:20:42;;;;;;;11.38;4.28;;;-0.50;63.30;;;;;;4094744;28;20030;-80
2022/03/09 00:22:43;;;;;;;7.82;3.78;;;-0.50;63.50;;;;;;4094526;28;20485;-79
2022/03/09 00:24:44;;;;;;;7.82;3.97;;;-0.50;63.60;;;;;;4093117;28;20031;-80
2022/03/09 00:26:44;;;;;;;8.63;4.43;;;-0.60;63.70;;;;;;4094487;28;20071;-79
2022/03/09 00:28:45;;;;;;;6.60;3.95;;;-0.60;63.80;;;;;;4092190;29;20438;-79
2022/03/09 00:30:46;;;;;;;9.90;4.45;;;-0.60;63.90;;;;;;4093109;28;20661;-80
2022/03/09 00:32:47;;;;;;;10.00;4.57;;;-0.60;64.00;;;;;;4078685;29;20024;-79
2022/03/09 00:34:47;;;;;;;9.77;4.32;;;-0.60;64.00;;;;;;4130775;28;20109;-80
2022/03/09 00:36:48;;;;;;;10.52;5.07;;;-0.60;64.10;;;;;;4093644;29;20027;-79
2022/03/09 00:38:49;;;;;;;10.23;4.63;;;-0.60;64.20;;;;;;4094036;29;20114;-80
2022/03/09 00:40:50;;;;;;;11.05;4.88;;;-0.60;64.20;;;;;;4109304;28;20038;-79
2022/03/09 00:42:55;;;;;;;10.88;5.38;;;-0.60;64.30;;;;;;4063834;29;20094;-80
2022/03/09 00:44:55;;;;;;;9.77;4.30;;;-0.60;64.50;;;;;;4111675;28;20062;-79
2022/03/09 00:46:56;;;;;;;12.75;5.00;;;-0.60;64.60;;;;;;4092281;29;20031;-80
2022/03/09 00:48:57;;;;;;;12.13;4.97;;;-0.60;64.80;;;;;;4089055;29;20386;-79
2022/03/09 00:50:57;;;;;;;10.85;4.90;;;-0.70;65.50;;;;;;4095112;29;20033;-80
2022/03/09 00:52:58;;;;;;;12.23;5.13;;;-0.70;64.90;;;;;;4110930;28;20031;-80
2022/03/09 00:54:59;;;;;;;13.52;5.45;;;-0.70;65.00;;;;;;4125583;28;21713;-79
2022/03/09 00:56:59;;;;;;;8.95;4.75;;;-0.70;65.00;;;;;;4092283;28;20023;-79
2022/03/09 00:59:00;;;;;;;10.38;4.97;;;-0.70;65.10;;;;;;4078155;29;20028;-80
2022/03/09 01:01:01;;;;;;;9.45;4.95;;;-0.70;65.10;;;;;;4118892;28;20026;-79
2022/03/09 01:03:02;;;;;;;8.68;4.35;;;-0.70;65.30;;;;;;4124312;28;20512;-79
2022/03/09 01:05:02;;;;;;;9.27;4.88;;;-0.70;65.30;;;;;;4095116;29;20034;-79
2022/03/09 01:07:03;;;;;;;11.05;4.80;;;-0.70;65.30;;;;;;4078171;29;20027;-79
2022/03/09 01:09:04;;;;;;;10.70;4.43;;;-0.70;65.30;;;;;;4097977;28;20027;-79
2022/03/09 01:11:04;;;;;;;11.88;5.35;;;-0.80;65.30;;;;;;4111338;28;20177;-79
2022/03/09 01:13:05;;;;;;;12.35;5.10;;;-0.70;65.40;;;;;;4099200;28;20027;-79
2022/03/09 01:15:06;;;;;;;14.55;5.75;;;-0.80;65.40;;;;;;4097106;29;20036;-79
2022/03/09 01:17:07;;;;;;;10.52;5.15;;;-0.80;65.50;;;;;;4111027;28;20105;-79
2022/03/09 01:19:07;;;;;;;13.65;6.00;;;-0.80;65.60;;;;;;4096930;29;20065;-80
2022/03/09 01:21:08;;;;;;;10.02;5.28;;;-0.80;65.70;;;;;;4109568;28;20038;-80
2022/03/09 01:23:09;;;;;;;11.90;5.97;;;-0.90;65.80;;;;;;4097287;29;20080;-80
2022/03/09 01:25:09;;;;;;;12.02;5.68;;;-0.90;65.90;;;;;;4095638;28;20031;-80
2022/03/09 01:27:10;;;;;;;11.27;5.70;;;-0.90;66.00;;;;;;4113174;28;20023;-79
2022/03/09 01:29:11;;;;;;;11.98;5.82;;;-0.90;66.10;;;;;;4096678;29;20070;-79
2022/03/09 01:31:11;;;;;;;15.40;6.03;;;-0.90;66.30;;;;;;4101422;28;20425;-79
2022/03/09 01:33:12;;;;;;;12.07;6.03;;;-0.90;66.50;;;;;;4128233;28;20064;-79
2022/03/09 01:35:12;;;;;;;13.40;6.22;;;-0.90;66.70;;;;;;4097263;29;20032;-79
2022/03/09 01:37:13;;;;;;;13.68;6.20;;;-0.90;66.80;;;;;;4128869;28;20139;-80
2022/03/09 01:39:14;;;;;;;14.82;6.93;;;-0.90;66.90;;;;;;4109988;28;20031;-80
2022/03/09 01:41:14;;;;;;;12.00;6.13;;;-0.90;67.00;;;;;;4110172;28;20407;-79
2022/03/09 01:43:15;;;;;;;10.35;5.35;;;-0.90;67.10;;;;;;4111270;28;20027;-79
2022/03/09 01:45:16;;;;;;;11.60;5.70;;;-0.90;67.20;;;;;;4094940;28;20628;-79
2022/03/09 01:47:17;;;;;;;14.27;5.88;;;-0.90;67.30;;;;;;4120484;28;20084;-79
2022/03/09 01:49:18;;;;;;;11.98;5.70;;;-0.90;67.40;;;;;;4110499;28;20491;-79
2022/03/09 01:51:19;;;;;;;16.25;6.25;;;-0.90;67.40;;;;;;4128760;28;20117;-79
2022/03/09 01:53:19;;;;;;;12.48;5.93;;;-0.90;67.50;;;;;;4113116;28;20380;-79
2022/03/09 01:55:20;;;;;;;16.95;5.95;;;-0.90;67.50;;;;;;4097380;29;20055;-80
2022/03/09 01:57:21;;;;;;;14.63;5.43;;;-1.00;67.40;;;;;;4096078;28;20042;-79
2022/03/09 01:59:32;;;;;;;11.88;5.38;;;-1.00;67.40;;;;;;4088132;28;20098;-79
2022/03/09 02:01:32;;;;;;;11.27;5.75;;;-1.00;67.40;;;;;;4114030;28;20151;-79
2022/03/09 02:03:34;;;;;;;12.73;6.28;;;-1.00;67.50;;;;;;4097890;28;20038;-78
2022/03/09 02:05:35;;;;;;;16.75;6.35;;;-1.00;67.60;;;;;;4112187;28;20570;-78
2022/03/09 02:09:56;;;;;;;13.50;6.53;;;-1.10;67.80;;;;;;4109963;28;20568;-79
2022/03/09 02:11:57;;;;;;;12.35;6.05;;;-1.00;68.00;;;;;;4080473;29;20079;-79
2022/03/09 02:13:57;;;;;;;12.13;6.10;;;-1.00;68.10;;;;;;4095562;29;20505;-80
2022/03/09 02:15:58;;;;;;;14.13;6.38;;;-0.90;68.30;;;;;;4097603;28;20075;-79
2022/03/09 02:18:01;;;;;;;14.25;6.75;;;-1.10;68.30;;;;;;4112885;28;20027;-79
2022/03/09 02:20:02;;;;;;;17.27;6.70;;;-1.10;68.40;;;;;;4114601;28;20031;-79
2022/03/09 02:22:06;;;;;;;17.77;6.40;;;-1.10;68.50;;;;;;4065740;29;20403;-79
2022/03/09 02:24:07;;;;;;;13.88;6.47;;;-1.10;68.50;;;;;;4096589;28;20102;-79
2022/03/09 02:26:08;;;;;;;12.73;6.82;;;-1.10;68.60;;;;;;4094036;28;20027;-79
2022/03/09 02:28:09;;;;;;;13.27;6.30;;;-1.10;68.70;;;;;;4092084;28;20062;-78
2022/03/09 02:30:11;;;;;;;13.57;6.78;;;-1.10;68.80;;;;;;4096546;29;20126;-79
2022/03/09 02:32:12;;;;;;;13.00;6.50;;;-1.10;68.80;;;;;;4095601;28;20500;-79
2022/03/09 02:34:12;;;;;;;13.57;6.25;;;-1.10;68.90;;;;;;4096687;29;20166;-79
2022/03/09 02:36:13;;;;;;;14.27;6.63;;;-1.10;68.90;;;;;;4095835;28;20026;-79
2022/03/09 02:38:13;;;;;;;12.45;6.30;;;-1.10;68.80;;;;;;4108499;28;20135;-79
2022/03/09 02:40:15;;;;;;;13.10;6.38;;;-1.20;68.70;;;;;;4112586;28;20026;-79
2022/03/09 02:42:15;;;;;;;13.73;6.50;;;-1.20;68.70;;;;;;4097234;29;20034;-78
2022/03/09 02:44:16;;;;;;;11.35;5.95;;;-1.20;68.70;;;;;;4078845;29;20071;-78
2022/03/09 02:46:17;;;;;;;11.25;6.35;;;-1.20;68.90;;;;;;4102202;28;20032;-78
2022/03/09 02:48:20;;;;;;;15.15;6.10;;;-1.30;68.80;;;;;;4111890;28;20452;-79
2022/03/09 02:50:21;;;;;;;16.17;6.82;;;-1.30;68.70;;;;;;4094608;29;20430;-79
2022/03/09 02:52:21;;;;;;;12.10;5.72;;;-1.30;68.80;;;;;;4111505;28;20041;-79
2022/03/09 02:54:22;;;;;;;14.23;6.70;;;-1.30;68.80;;;;;;4113403;28;20026;-78
2022/03/09 02:56:22;;;;;;;17.73;7.07;;;-1.30;68.80;;;;;;4107705;28;20065;-80
2022/03/09 02:58:25;;;;;;;12.25;5.65;;;-1.40;68.80;;;;;;4096736;28;20543;-79
2022/03/09 03:00:25;;;;;;;12.57;6.20;;;-1.40;68.90;;;;;;4112613;28;20579;-79
2022/03/09 03:02:26;;;;;;;13.07;6.60;;;-1.40;69.10;;;;;;4111958;28;20034;-79
2022/03/09 03:04:27;;;;;;;16.20;7.18;;;-1.40;69.20;;;;;;4095145;29;20054;-79
2022/03/09 03:06:27;;;;;;;15.73;6.90;;;-1.40;69.30;;;;;;4111940;28;20035;-79
2022/03/09 03:08:28;;;;;;;12.15;5.65;;;-1.40;69.50;;;;;;4109803;28;20512;-79
2022/03/09 03:10:28;;;;;;;11.40;5.55;;;-1.40;69.60;;;;;;4095384;28;20036;-79
2022/03/09 03:12:29;;;;;;;13.35;6.18;;;-1.40;69.70;;;;;;4111971;28;20035;-79
2022/03/09 03:14:30;;;;;;;14.70;6.43;;;-1.50;69.60;;;;;;4095526;29;20671;-79
2022/03/09 03:16:31;;;;;;;14.48;6.63;;;-1.50;69.50;;;;;;4065578;29;20028;-79
2022/03/09 03:18:32;;;;;;;11.82;6.53;;;-1.50;69.50;;;;;;4109181;28;20057;-79
2022/03/09 03:20:32;;;;;;;16.10;6.50;;;-1.50;69.60;;;;;;4094876;28;20035;-79
2022/03/09 03:22:33;;;;;;;12.65;5.80;;;-1.50;69.50;;;;;;4110484;28;20050;-79
2022/03/09 03:24:34;;;;;;;13.95;6.53;;;-1.60;69.40;;;;;;4081241;29;20023;-79
2022/03/09 03:26:34;;;;;;;14.82;6.70;;;-1.60;69.40;;;;;;4095519;29;20031;-79
2022/03/09 03:28:35;;;;;;;13.80;6.35;;;-1.60;69.40;;;;;;4111603;28;20038;-80
2022/03/09 03:30:36;;;;;;;14.38;7.10;;;-1.60;69.40;;;;;;4115276;28;20507;-80
2022/03/09 03:32:36;;;;;;;14.98;6.47;;;-1.70;69.40;;;;;;4095060;29;20042;-79
2022/03/09 03:34:37;;;;;;;20.08;7.10;;;-1.70;69.40;;;;;;4111849;28;20023;-80
2022/03/09 03:36:38;;;;;;;13.45;6.72;;;-1.70;69.40;;;;;;4128345;28;20038;-80
2022/03/09 03:38:38;;;;;;;15.82;7.07;;;-1.70;69.50;;;;;;4094535;28;20067;-80
2022/03/09 03:40:39;;;;;;;14.32;6.07;;;-1.70;69.60;;;;;;4096816;29;20027;-79
2022/03/09 03:42:40;;;;;;;14.88;7.30;;;-1.70;69.60;;;;;;4129492;28;20031;-80
2022/03/09 03:44:44;;;;;;;15.43;7.13;;;-1.70;69.70;;;;;;4095950;29;20145;-79
2022/03/09 03:46:44;;;;;;;15.27;6.97;;;-1.70;69.80;;;;;;4111246;28;20504;-79
2022/03/09 03:48:45;;;;;;;13.60;6.57;;;-1.70;69.80;;;;;;4127227;28;20102;-79
2022/03/09 03:53:06;;;;;;;16.33;7.25;;;-1.90;69.80;;;;;;4113768;28;20496;-79
2022/03/09 03:55:07;;;;;;;14.90;7.03;;;-1.80;69.90;;;;;;4078946;29;20099;-80
2022/03/09 03:57:08;;;;;;;18.15;8.02;;;-1.80;69.90;;;;;;4109165;28;20039;-80
2022/03/09 03:59:08;;;;;;;17.75;6.88;;;-1.80;70.00;;;;;;4110880;28;20094;-80
2022/03/09 04:01:09;;;;;;;14.20;6.90;;;-1.80;70.00;;;;;;4110243;28;20030;-80
2022/03/09 04:03:09;;;;;;;18.27;7.55;;;-1.90;70.00;;;;;;4095725;28;20475;-80
2022/03/09 04:05:10;;;;;;;14.80;7.38;;;-1.90;70.00;;;;;;4108308;28;20065;-79
2022/03/09 04:07:11;;;;;;;20.45;7.00;;;-1.90;70.00;;;;;;4110568;28;20074;-79
2022/03/09 04:09:11;;;;;;;13.93;6.40;;;-1.90;70.10;;;;;;4078787;29;20032;-79
2022/03/09 04:11:12;;;;;;;18.02;7.50;;;-1.90;70.20;;;;;;4109630;28;20039;-78
2022/03/09 04:13:14;;;;;;;16.30;7.53;;;-1.90;70.20;;;;;;4095475;29;20035;-79
2022/03/09 04:15:18;;;;;;;16.57;8.23;;;-1.90;70.30;;;;;;4092919;29;20576;-79
2022/03/09 04:17:20;;;;;;;19.00;7.72;;;-2.00;70.40;;;;;;4110911;28;20822;-79
2022/03/09 04:19:21;;;;;;;16.05;7.40;;;-2.00;70.50;;;;;;4093135;28;20500;-79
2022/03/09 04:21:24;;;;;;;15.25;7.20;;;-2.00;70.60;;;;;;4076966;29;20043;-79
2022/03/09 04:23:25;;;;;;;;;;;-2.00;70.70;;;;;;4092329;28;20564;-79
2022/03/09 04:25:31;;;;;;;14.75;7.53;;;-2.00;71.00;;;;;;4126551;28;19917;-79
2022/03/09 04:27:32;;;;;;;17.00;7.07;;;-2.00;70.90;;;;;;4125351;28;20041;-79
2022/03/09 04:29:33;;;;;;;15.90;7.45;;;-2.00;70.80;;;;;;4095006;28;20062;-79
2022/03/09 04:31:33;;;;;;;16.33;7.60;;;-2.00;70.70;;;;;;4115290;28;20088;-79
2022/03/09 04:33:34;;;;;;;20.15;7.50;;;-2.00;70.70;;;;;;4091457;29;20050;-79
2022/03/09 04:35:37;;;;;;;19.67;8.68;;;-2.00;70.70;;;;;;4093837;29;20042;-79
2022/03/09 04:37:38;;;;;;;14.55;7.22;;;-2.00;70.70;;;;;;4093688;29;20535;-79
2022/03/09 04:39:48;;;;;;;15.55;6.85;;;-2.00;70.70;;;;;;4127659;28;20030;-79
2022/03/09 04:41:48;;;;;;;16.13;7.45;;;-2.10;70.60;;;;;;4092501;28;20461;-79
2022/03/09 04:43:49;;;;;;;17.33;7.50;;;-2.10;70.60;;;;;;4093257;29;20106;-79
2022/03/09 04:45:53;;;;;;;16.10;7.55;;;-2.10;70.70;;;;;;4111762;28;20574;-79
2022/03/09 04:47:54;;;;;;;18.15;7.70;;;-2.20;70.60;;;;;;4095110;28;20477;-79
2022/03/09 04:49:55;;;;;;;20.08;7.18;;;-2.10;70.70;;;;;;4107472;28;20093;-79
2022/03/09 04:51:55;;;;;;;17.92;7.38;;;-2.10;70.80;;;;;;4125312;28;20504;-78
2022/03/09 04:53:56;;;;;;;17.25;7.20;;;-2.20;70.90;;;;;;4125523;28;20027;-79
2022/03/09 04:55:57;;;;;;;17.27;6.95;;;-2.20;71.10;;;;;;4079003;29;20101;-79
2022/03/09 04:57:57;;;;;;;13.65;6.78;;;-2.20;71.20;;;;;;4079147;29;20513;-79
2022/03/09 04:59:58;;;;;;;15.43;7.15;;;-2.20;71.30;;;;;;4109119;28;20033;-79
2022/03/09 05:01:59;;;;;;;17.13;7.13;;;-2.20;71.40;;;;;;4106861;28;20023;-79
2022/03/09 05:03:59;;;;;;;15.80;6.95;;;-2.20;71.50;;;;;;4089841;28;20114;-78
2022/03/09 05:06:03;;;;;;;16.33;6.97;;;-2.20;71.50;;;;;;4080620;29;20113;-79
2022/03/09 05:08:05;;;;;;;14.35;6.18;;;-2.20;71.50;;;;;;4080254;29;20042;-79
2022/03/09 05:10:06;;;;;;;18.00;6.22;;;-2.20;71.60;;;;;;4115586;28;20501;-79
2022/03/09 05:12:07;;;;;;;12.85;6.55;;;-2.20;72.40;;;;;;4126936;28;20480;-79
2022/03/09 05:14:08;;;;;;;16.25;6.72;;;-2.20;71.60;;;;;;4110824;28;20142;-78
2022/03/09 05:16:08;;;;;;;18.27;5.68;;;-2.20;71.70;;;;;;4107992;28;20027;-78
2022/03/09 05:18:09;;;;;;;28.88;7.72;;;-2.20;71.70;;;;;;4109730;28;20027;-78
2022/03/09 05:20:11;;;;;;;16.05;6.75;;;-2.20;71.70;;;;;;4092142;29;20027;-78
2022/03/09 05:22:11;;;;;;;18.25;7.32;;;-2.20;71.70;;;;;;4092787;29;20512;-78
2022/03/09 05:24:12;;;;;;;16.45;7.00;;;-2.20;71.70;;;;;;4126694;28;20022;-78
2022/03/09 05:26:13;;;;;;;14.95;5.82;;;-2.20;71.80;;;;;;4091451;29;20095;-77
2022/03/09 05:28:13;;;;;;;13.35;6.00;;;-2.20;71.90;;;;;;4106236;28;20388;-78
2022/03/09 05:30:18;;;;;;;14.10;6.43;;;-2.20;71.90;;;;;;4092982;28;20042;-78
2022/03/09 05:32:19;;;;;;;14.60;6.80;;;-2.20;71.90;;;;;;4125967;28;20108;-77
2022/03/09 05:34:19;;;;;;;15.15;6.47;;;-2.20;71.90;;;;;;4106464;28;20102;-78
2022/03/09 05:36:20;;;;;;;13.05;5.82;;;-2.20;71.90;;;;;;4106670;28;20086;-78
2022/03/09 05:38:21;;;;;;;15.43;6.95;;;-2.20;71.80;;;;;;4079121;29;20028;-78
2022/03/09 05:40:21;;;;;;;13.00;6.10;;;-2.20;71.70;;;;;;4123877;28;20443;-78
2022/03/09 05:42:22;;;;;;;13.93;6.18;;;-2.30;71.60;;;;;;4109049;28;20066;-78
2022/03/09 05:44:22;;;;;;;14.68;6.03;;;-2.20;71.70;;;;;;4108542;28;20027;-78
2022/03/09 05:46:23;;;;;;;15.80;7.10;;;-2.30;71.90;;;;;;4123966;28;20042;-78
2022/03/09 05:48:24;;;;;;;14.45;5.78;;;-2.30;72.00;;;;;;4105077;28;20034;-78
2022/03/09 05:50:24;;;;;;;16.63;6.25;;;-2.20;72.30;;;;;;4109072;28;20066;-78
2022/03/09 05:52:25;;;;;;;12.18;5.97;;;-2.30;72.40;;;;;;4108360;28;20026;-78
2022/03/09 05:54:26;;;;;;;15.00;6.60;;;-2.20;73.20;;;;;;4127291;28;20034;-78
2022/03/09 05:56:26;;;;;;;13.80;6.93;;;-2.30;72.40;;;;;;4109380;28;20019;-78
2022/03/09 05:58:27;;;;;;;13.15;6.85;;;-2.20;72.50;;;;;;4109574;28;20428;-78
2022/03/09 06:00:27;;;;;;;18.83;6.53;;;-2.20;72.60;;;;;;4109001;28;20241;-77
2022/03/09 06:02:28;;;;;;;17.60;7.53;;;-2.20;72.60;;;;;;4108716;28;20026;-78
2022/03/09 06:04:29;;;;;;;14.07;6.55;;;-2.20;72.70;;;;;;4129848;28;20027;-78
2022/03/09 06:06:30;;;;;;;16.40;6.78;;;-2.20;72.80;;;;;;4091765;29;20051;-78
2022/03/09 06:08:31;;;;;;;18.35;8.20;;;-2.20;72.80;;;;;;4128842;28;20030;-78
2022/03/09 06:10:32;;;;;;;29.92;7.55;;;-2.10;73.10;;;;;;4126365;28;20034;-78
2022/03/09 06:12:33;;;;;;;19.23;6.93;;;-2.10;73.10;;;;;;4126607;28;20365;-77
2022/03/09 06:14:34;;;;;;;16.98;7.38;;;-2.10;73.10;;;;;;4111077;28;20061;-78
2022/03/09 06:16:34;;;;;;;19.30;7.68;;;-2.10;73.10;;;;;;4110056;28;20392;-77
2022/03/09 06:18:35;;;;;;;15.00;6.53;;;-2.10;73.10;;;;;;4125713;28;20027;-78
2022/03/09 06:20:36;;;;;;;22.20;6.80;;;-2.10;73.30;;;;;;4109383;28;20419;-77
2022/03/09 06:22:36;;;;;;;15.30;6.82;;;-2.10;73.30;;;;;;4092188;29;20170;-77
2022/03/09 06:24:37;;;;;;;24.05;7.40;;;-2.00;73.40;;;;;;4094124;29;20031;-78
2022/03/09 06:26:37;;;;;;;13.50;6.40;;;-2.00;73.50;;;;;;4106151;28;20227;-77
2022/03/09 06:28:38;;;;;;;16.77;7.60;;;-2.00;73.60;;;;;;4110870;28;20449;-77
2022/03/09 06:30:39;;;;;;;15.32;6.95;;;-1.90;73.70;;;;;;4122956;28;20030;-78
2022/03/09 06:32:41;;;;;;;18.38;6.50;;;-1.90;73.90;;;;;;4114279;28;20035;-77
2022/03/09 06:34:42;;;;;;;14.63;6.88;;;-1.90;74.00;;;;;;4127892;28;20444;-77
2022/03/09 06:36:44;;;;;;;12.57;6.65;;;-1.80;74.10;;;;;;4107103;28;20038;-78
2022/03/09 06:38:45;;;;;;;15.52;7.32;;;-1.80;74.20;;;;;;4125585;28;20038;-78
2022/03/09 06:40:46;;;;;;;14.40;6.72;;;-1.70;74.30;;;;;;4125989;28;20056;-78
2022/03/09 06:42:47;;;;;;;15.45;6.60;;;-1.70;74.40;;;;;;4125706;28;20035;-77
2022/03/09 06:44:47;;;;;;;22.48;6.80;;;-1.60;74.50;;;;;;4109429;28;20014;-78
2022/03/09 06:46:50;;;;;;;17.95;7.38;;;-1.60;74.60;;;;;;4089393;29;20678;-77
2022/03/09 06:48:51;;;;;;;;;;;-1.50;74.70;;;;;;4121579;28;20487;-78
2022/03/09 06:50:51;;;;;;;19.40;6.57;;;-1.50;75.00;;;;;;4125906;28;19910;-77
2022/03/09 06:52:52;;;;;;;17.60;6.68;;;-1.40;74.80;;;;;;4104948;28;20027;-78
2022/03/09 06:54:53;;;;;;;15.95;6.93;;;-1.30;75.00;;;;;;4114228;28;20019;-78
2022/03/09 06:56:53;;;;;;;13.55;6.53;;;-1.30;75.10;;;;;;4107981;28;20094;-78
2022/03/09 06:58:54;;;;;;;14.00;6.20;;;-1.20;75.20;;;;;;4106716;28;20020;-77
2022/03/09 07:00:55;;;;;;;15.18;6.55;;;-1.20;75.30;;;;;;4125484;28;20019;-77
2022/03/09 07:02:56;;;;;;;15.20;6.45;;;-1.10;75.50;;;;;;4097276;28;20082;-77
2022/03/09 07:04:57;;;;;;;16.25;6.68;;;-1.00;75.60;;;;;;4121612;28;20110;-77
2022/03/09 07:06:58;;;;;;;14.23;6.47;;;-0.90;75.90;;;;;;4105976;28;20083;-78
2022/03/09 07:08:58;;;;;;;11.38;5.68;;;-0.90;76.00;;;;;;4106918;28;20031;-77
2022/03/09 07:10:59;;;;;;;13.43;5.88;;;-0.80;76.20;;;;;;4124954;28;20038;-77
2022/03/09 07:13:00;;;;;;;17.95;6.45;;;-0.70;76.30;;;;;;4097526;29;20023;-77
2022/03/09 07:15:00;;;;;;;14.15;6.22;;;-0.70;76.20;;;;;;4127641;28;20081;-77
2022/03/09 07:17:01;;;;;;;15.02;6.35;;;-0.60;76.30;;;;;;4097439;29;20016;-77
2022/03/09 07:19:01;;;;;;;15.15;6.63;;;-0.50;76.40;;;;;;4123984;28;20070;-77
2022/03/09 07:21:02;;;;;;;13.90;6.30;;;-0.40;76.40;;;;;;4128748;28;20112;-77
2022/03/09 07:23:03;;;;;;;15.13;6.95;;;-0.30;76.60;;;;;;4110094;28;20717;-77
2022/03/09 07:25:04;;;;;;;13.98;6.15;;;-0.30;76.60;;;;;;4109935;28;20121;-77
2022/03/09 07:27:04;;;;;;;16.70;6.60;;;-0.20;76.80;;;;;;4111173;28;20042;-77
2022/03/09 07:29:06;;;;;;;13.63;7.05;;;-0.10;77.00;;;;;;4125935;28;20038;-78
2022/03/09 07:31:06;;;;;;;12.00;6.20;;;0.00;77.10;;;;;;4103652;28;20555;-78
2022/03/09 07:33:07;;;;;;;13.38;6.50;;;0.10;77.10;;;;;;4107990;28;20050;-77
2022/03/09 07:35:09;;;;;;;15.50;6.50;;;0.10;77.10;;;;;;4110070;28;20059;-77
2022/03/09 07:37:09;;;;;;;16.42;6.10;;;0.20;77.10;;;;;;4106235;28;20477;-77
2022/03/09 07:39:10;;;;;;;11.98;6.43;;;0.30;77.10;;;;;;4090496;29;20139;-77
2022/03/09 07:41:10;;;;;;;13.25;6.10;;;0.40;77.00;;;;;;4110124;28;20103;-77
2022/03/09 07:43:11;;;;;;;12.77;6.28;;;0.50;77.00;;;;;;4126788;28;20030;-77
2022/03/09 07:45:12;;;;;;;12.00;6.18;;;0.60;77.10;;;;;;4125164;28;20065;-78
2022/03/09 07:47:13;;;;;;;12.27;6.05;;;0.70;77.10;;;;;;4091096;29;20032;-77
2022/03/09 07:49:13;;;;;;;12.00;5.82;;;0.80;77.10;;;;;;4105481;28;20068;-78
2022/03/09 07:51:14;;;;;;;13.98;5.90;;;0.90;77.00;;;;;;4110968;28;20023;-78
2022/03/09 07:53:15;;;;;;;24.50;5.82;;;1.00;76.90;;;;;;4092940;28;20019;-77
2022/03/09 07:55:16;;;;;;;13.85;5.15;;;1.10;76.80;;;;;;4110921;28;20587;-78
2022/03/09 07:57:16;;;;;;;15.02;5.35;;;1.20;76.70;;;;;;4092985;29;20015;-78
2022/03/09 07:59:17;;;;;;;9.82;4.78;;;1.30;76.70;;;;;;4070584;29;20221;-78
2022/03/09 08:01:18;;;;;;;11.80;5.10;;;1.50;76.80;;;;;;4112209;28;20027;-79
2022/03/09 08:03:18;;;;;;;10.10;5.60;;;1.50;76.60;;;;;;4106481;28;20031;-78
2022/03/09 08:05:19;;;;;;;7.80;4.43;;;1.70;76.70;;;;;;4124282;28;20045;-78
2022/03/09 08:07:19;;;;;;;10.27;4.30;;;1.80;76.60;;;;;;4123852;28;20022;-78
2022/03/09 08:09:20;;;;;;;13.85;4.95;;;1.90;76.50;;;;;;4105418;28;20057;-79
2022/03/09 08:11:22;;;;;;;12.75;4.57;;;2.00;76.40;;;;;;4095863;28;20023;-79
2022/03/09 08:13:23;;;;;;;7.32;4.35;;;2.10;76.30;;;;;;4089722;28;20449;-78
2022/03/09 08:15:24;;;;;;;8.00;4.40;;;2.20;76.10;;;;;;4112595;28;20027;-78
2022/03/09 08:17:25;;;;;;;10.60;4.75;;;2.30;76.00;;;;;;4121229;28;20490;-78
2022/03/09 08:19:25;;;;;;;10.68;4.60;;;2.50;75.80;;;;;;4105528;28;20105;-78
2022/03/09 08:21:26;;;;;;;10.35;4.55;;;2.60;75.40;;;;;;4127770;28;20027;-78
2022/03/09 08:23:27;;;;;;;7.63;4.25;;;2.70;75.00;;;;;;4119249;28;20396;-78
2022/03/09 08:25:27;;;;;;;8.68;3.85;;;2.90;74.50;;;;;;4115365;28;20070;-79
2022/03/09 08:27:28;;;;;;;8.55;3.80;;;2.90;73.90;;;;;;4103653;28;20119;-79
2022/03/09 08:29:28;;;;;;;9.57;3.92;;;3.10;73.50;;;;;;4064217;29;20447;-79
2022/03/09 08:31:29;;;;;;;10.30;4.30;;;3.20;72.80;;;;;;4079779;29;20055;-78
2022/03/09 08:33:31;;;;;;;8.00;3.83;;;3.30;72.30;;;;;;4094392;28;20027;-78
2022/03/09 08:35:32;;;;;;;8.25;3.38;;;3.30;71.80;;;;;;4107648;28;20030;-79
2022/03/09 08:37:33;;;;;;;9.70;3.72;;;3.50;71.40;;;;;;4125417;28;20073;-79
2022/03/09 08:39:33;;;;;;;10.45;3.60;;;3.60;70.90;;;;;;4104978;28;20023;-78
2022/03/09 08:41:35;;;;;;;5.95;3.33;;;3.70;70.50;;;;;;4092355;28;20500;-78
2022/03/09 08:43:36;;;;;;;6.07;3.55;;;3.80;69.60;;;;;;4108300;28;20433;-79
2022/03/09 08:45:37;;;;;;;7.78;3.70;;;3.90;69.10;;;;;;4123617;28;20032;-79
2022/03/09 08:47:39;;;;;;;7.53;3.50;;;4.00;68.40;;;;;;4121346;28;20058;-79
2022/03/09 08:49:40;;;;;;;7.40;3.38;;;4.10;67.80;;;;;;4123634;28;20045;-79
2022/03/09 08:51:41;;;;;;;7.80;3.40;;;4.20;67.10;;;;;;4111593;28;20027;-79
2022/03/09 08:53:41;;;;;;;9.15;3.60;;;4.30;66.60;;;;;;4088784;29;20143;-78
2022/03/09 08:55:42;;;;;;;10.07;3.53;;;4.40;66.10;;;;;;4125396;28;20033;-79
2022/03/09 09:16:05;;;;;;;8.98;3.75;;;4.40;66.30;;;;;;4215514;27;20765;-76
2022/03/09 09:18:26;;;;;;;12.55;4.05;;;4.90;58.90;;;;;;4203130;28;20041;-76
2022/03/09 09:20:47;;;;;;;10.23;4.40;;;5.10;59.20;;;;;;4199940;28;20401;-76
2022/03/09 09:23:08;;;;;;;8.18;4.00;;;5.20;57.90;;;;;;4197665;28;20404;-76
2022/03/09 09:25:29;;;;;;;8.45;3.55;;;5.30;57.50;;;;;;4212737;28;20039;-77
2022/03/09 09:27:54;;;;;;;9.45;4.10;;;5.40;57.50;;;;;;4201081;28;20025;-77
2022/03/09 09:30:15;;;;;;;8.02;4.10;;;5.50;56.50;;;;;;4197604;28;20127;-78
2022/03/09 09:32:36;;;;;;;11.95;4.30;;;5.60;57.00;;;;;;4183658;28;20073;-77
2022/03/09 09:34:57;;;;;;;14.10;3.60;;;5.70;56.10;;;;;;4213707;28;20036;-76
2022/03/09 09:37:18;;;;;;;10.00;3.83;;;5.80;56.80;;;;;;4213070;28;20028;-77
2022/03/09 09:39:39;;;;;;;8.68;3.78;;;5.80;56.00;;;;;;4195976;28;20035;-77
2022/03/09 09:42:00;;;;;;;10.35;3.90;;;5.80;55.30;;;;;;4242039;27;20407;-77
2022/03/09 09:44:22;;;;;;;8.45;3.70;;;6.00;54.80;;;;;;4205272;27;20113;-77
2022/03/09 09:46:43;;;;;;;7.45;3.67;;;6.00;55.30;;;;;;4219134;27;20036;-76
2022/03/09 09:49:04;;;;;;;7.95;3.60;;;6.00;54.80;;;;;;4218275;27;20032;-77
2022/03/09 09:51:25;;;;;;;9.05;3.63;;;6.10;55.30;;;;;;4206839;27;20119;-76
2022/03/09 09:53:46;;;;;;;9.02;3.80;;;6.20;55.20;;;;;;4220791;27;21952;-77
2022/03/09 09:56:07;;;;;;;13.00;3.78;;;6.30;54.80;;;;;;4227342;27;20341;-77
2022/03/09 09:58:28;;;;;;;10.65;3.70;;;6.30;54.40;;;;;;4219039;27;20466;-76
2022/03/09 10:00:49;;;;;;;11.18;3.38;;;6.40;53.60;;;;;;4201885;27;20028;-77
2022/03/09 10:03:10;;;;;;;7.28;3.65;;;6.40;54.10;;;;;;4224169;27;20024;-77
2022/03/09 10:05:32;;;;;;;6.57;3.10;;;6.50;54.10;;;;;;4250082;27;20067;-78
2022/03/09 10:08:05;;;;;;;8.48;3.58;;;6.60;52.90;;;;;;4235268;27;20027;-78
2022/03/09 10:10:26;;;;;;;7.28;3.33;;;6.70;52.00;;;;;;4249971;27;20066;-76
2022/03/09 10:12:47;;;;;;;13.43;4.05;;;6.70;52.40;;;;;;4236092;27;20040;-77
2022/03/09 10:15:08;;;;;;;11.27;3.70;;;6.80;51.40;;;;;;4221378;27;20043;-77
2022/03/09 10:17:30;;;;;;;7.72;3.90;;;6.80;52.70;;;;;;4196160;27;20041;-78
2022/03/09 10:19:52;;;;;;;7.45;3.92;;;7.00;52.40;;;;;;4213999;27;20030;-76
2022/03/09 10:22:28;;;;;;;14.25;3.20;;;7.00;51.20;;;;;;4203565;27;20647;-77
2022/03/09 10:24:49;;;;;;;7.47;3.78;;;7.10;49.90;;;;;;4213083;27;20059;-76
2022/03/09 10:27:10;;;;;;;8.90;3.70;;;7.10;48.80;;;;;;4223683;27;20115;-77
2022/03/09 10:29:31;;;;;;;6.63;3.30;;;7.20;49.80;;;;;;4213498;27;20070;-78
2022/03/09 10:31:57;;;;;;;7.70;3.15;;;7.30;49.40;;;;;;4239867;27;20218;-77
2022/03/09 10:34:20;;;;;;;6.03;2.97;;;7.30;49.40;;;;;;4210651;27;20496;-78
2022/03/09 10:37:13;;;;;;;6.28;3.20;;;7.40;49.30;;;;;;4224233;27;20028;-78
2022/03/09 10:39:37;;;;;;;9.10;3.28;;;7.50;48.90;;;;;;4225855;27;20031;-77
2022/03/09 10:41:58;;;;;;;5.57;2.78;;;7.60;48.10;;;;;;4197107;27;20032;-77
2022/03/09 10:44:19;;;;;;;5.85;2.95;;;7.60;48.40;;;;;;4206393;28;20040;-76
2022/03/09 10:46:44;;;;;;;5.72;3.08;;;7.70;48.60;;;;;;4207909;27;20036;-77
2022/03/09 10:49:06;;;;;;;10.48;3.38;;;7.80;48.70;;;;;;4216011;27;20094;-77
2022/03/09 10:51:44;;;;;;;9.63;4.22;;;7.80;48.70;;;;;;4195192;27;22321;-77
2022/03/09 10:54:16;;;;;;;8.80;3.70;;;7.80;47.40;;;;;;4193710;28;20485;-89
2022/03/09 10:56:42;;;;;;;8.20;3.22;;;7.90;46.90;;;;;;4190480;28;20123;-89
2022/03/09 10:59:20;;;;;;;7.40;2.90;;;7.90;44.70;;;;;;4213899;27;20060;-89
2022/03/09 11:02:23;;;;;;;9.63;2.80;;;8.00;44.90;;;;;;4201010;27;20032;-90
2022/03/09 11:05:33;;;;;;;;;;;;;;;;;;;;;
2022/03/09 11:11:31;;;;;;;5.47;3.17;;;8.30;47.10;;;;;;4208271;27;20114;-89